sensor_id;sensor_type;location;lat;lon;timestamp;pressure;altitude;pressure_sealevel;temperature;humidity
62976;BME280;49071;0.000;0.000;2023-04-28T00:02:14;101342.56;;;16.97;43.77
62976;BME280;49071;0.000;0.000;2023-04-28T00:05:14;101338.25;;;16.96;43.86
62976;BME280;49071;0.000;0.000;2023-04-28T00:08:15;101334.84;;;16.94;43.75
62976;BME280;49071;0.000;0.000;2023-04-28T00:11:15;101334.88;;;16.93;43.67
62976;BME280;49071;0.000;0.000;2023-04-28T00:14:15;101338.41;;;16.92;43.85
62976;BME280;49071;0.000;0.000;2023-04-28T00:17:15;101334.94;;;16.91;43.55
62976;BME280;49071;0.000;0.000;2023-04-28T00:20:16;101330.56;;;16.90;43.77
62976;BME280;49071;0.000;0.000;2023-04-28T05:43:04;101189.72;;;17.70;38.85
62976;BME280;49071;0.000;0.000;2023-04-28T05:46:04;101189.13;;;17.39;39.92
62976;BME280;49071;0.000;0.000;2023-04-28T05:49:04;101184.03;;;17.34;40.39
62976;BME280;49071;0.000;0.000;2023-04-28T05:52:04;101175.94;;;17.40;40.17
62976;BME280;49071;0.000;0.000;2023-04-28T05:55:05;101179.94;;;17.51;40.06
62976;BME280;49071;0.000;0.000;2023-04-28T05:58:05;101177.72;;;17.63;40.03
62976;BME280;49071;0.000;0.000;2023-04-28T06:01:05;101178.09;;;17.78;39.91
62976;BME280;49071;0.000;0.000;2023-04-28T06:04:06;101174.06;;;17.92;39.59
62976;BME280;49071;0.000;0.000;2023-04-28T06:07:06;101176.13;;;18.06;39.70
62976;BME280;49071;0.000;0.000;2023-04-28T06:10:06;101173.69;;;18.24;39.69
62976;BME280;49071;0.000;0.000;2023-04-28T06:13:07;101181.66;;;18.42;39.41
62976;BME280;49071;0.000;0.000;2023-04-28T06:16:08;101175.00;;;18.56;39.18
62976;BME280;49071;0.000;0.000;2023-04-28T06:19:08;101164.97;;;18.65;39.18
62976;BME280;49071;0.000;0.000;2023-04-28T06:22:08;101175.38;;;18.89;39.07
62976;BME280;49071;0.000;0.000;2023-04-28T06:25:08;101169.53;;;19.03;38.56
62976;BME280;49071;0.000;0.000;2023-04-28T06:28:09;101162.31;;;19.08;38.71
62976;BME280;49071;0.000;0.000;2023-04-28T06:31:11;101150.09;;;19.07;38.56
62976;BME280;49071;0.000;0.000;2023-04-28T06:34:11;101151.22;;;19.01;38.80
62976;BME280;49071;0.000;0.000;2023-04-28T06:37:11;101153.75;;;19.03;38.76
62976;BME280;49071;0.000;0.000;2023-04-28T06:40:11;101142.47;;;19.01;38.69
62976;BME280;49071;0.000;0.000;2023-04-28T06:43:12;101141.53;;;19.02;38.18
62976;BME280;49071;0.000;0.000;2023-04-28T06:46:12;101149.50;;;19.00;38.58
62976;BME280;49071;0.000;0.000;2023-04-28T06:49:12;101139.19;;;18.96;38.69
62976;BME280;49071;0.000;0.000;2023-04-28T06:52:13;101137.03;;;18.85;38.54
62976;BME280;49071;0.000;0.000;2023-04-28T06:55:14;101131.63;;;18.88;38.79
62976;BME280;49071;0.000;0.000;2023-04-28T06:58:15;101129.00;;;18.88;38.60
62976;BME280;49071;0.000;0.000;2023-04-28T07:01:16;101126.44;;;18.86;38.80
62976;BME280;49071;0.000;0.000;2023-04-28T07:04:16;101128.16;;;18.87;38.86
62976;BME280;49071;0.000;0.000;2023-04-28T07:07:16;101123.88;;;18.85;38.92
62976;BME280;49071;0.000;0.000;2023-04-28T07:10:17;101120.53;;;18.81;38.94
62976;BME280;49071;0.000;0.000;2023-04-28T07:13:17;101123.28;;;18.78;38.65
62976;BME280;49071;0.000;0.000;2023-04-28T07:16:17;101111.06;;;18.77;38.64
62976;BME280;49071;0.000;0.000;2023-04-28T07:19:18;101114.75;;;18.73;38.71
62976;BME280;49071;0.000;0.000;2023-04-28T07:22:18;101106.25;;;18.67;38.90
62976;BME280;49071;0.000;0.000;2023-04-28T07:25:18;101095.88;;;18.63;38.83
62976;BME280;49071;0.000;0.000;2023-04-28T07:28:18;101099.53;;;18.59;39.01
62976;BME280;49071;0.000;0.000;2023-04-28T07:31:19;101097.97;;;18.55;38.96
62976;BME280;49071;0.000;0.000;2023-04-28T07:34:20;101096.38;;;18.51;39.01
62976;BME280;49071;0.000;0.000;2023-04-28T07:37:21;101090.28;;;18.51;38.90
62976;BME280;49071;0.000;0.000;2023-04-28T07:40:21;101091.25;;;18.48;39.16
62976;BME280;49071;0.000;0.000;2023-04-28T07:43:21;101090.50;;;18.46;38.72
62976;BME280;49071;0.000;0.000;2023-04-28T07:46:21;101079.19;;;18.44;39.19
62976;BME280;49071;0.000;0.000;2023-04-28T07:49:22;101086.22;;;18.44;39.11
62976;BME280;49071;0.000;0.000;2023-04-28T07:52:22;101081.00;;;18.42;38.87
62976;BME280;49071;0.000;0.000;2023-04-28T07:55:23;101082.78;;;18.41;39.02
62976;BME280;49071;0.000;0.000;2023-04-28T07:58:23;101081.09;;;18.40;38.94
62976;BME280;49071;0.000;0.000;2023-04-28T08:01:23;101073.22;;;18.40;38.84
62976;BME280;49071;0.000;0.000;2023-04-28T08:04:23;101063.69;;;18.38;38.95
62976;BME280;49071;0.000;0.000;2023-04-28T08:07:24;101058.50;;;18.36;38.95
62976;BME280;49071;0.000;0.000;2023-04-28T08:10:24;101062.03;;;18.35;39.20
62976;BME280;49071;0.000;0.000;2023-04-28T08:13:25;101066.44;;;18.35;39.20
62976;BME280;49071;0.000;0.000;2023-04-28T08:16:26;101051.59;;;18.34;39.20
62976;BME280;49071;0.000;0.000;2023-04-28T08:19:27;101052.44;;;18.34;39.13
62976;BME280;49071;0.000;0.000;2023-04-28T08:22:27;101047.06;;;18.37;38.86
62976;BME280;49071;0.000;0.000;2023-04-28T08:25:27;101042.75;;;18.36;38.24
62976;BME280;49071;0.000;0.000;2023-04-28T08:28:27;101034.59;;;18.42;37.82
62976;BME280;49071;0.000;0.000;2023-04-28T08:31:28;101035.13;;;18.51;38.00
62976;BME280;49071;0.000;0.000;2023-04-28T08:34:28;101034.59;;;18.63;37.87
62976;BME280;49071;0.000;0.000;2023-04-28T08:37:28;101027.97;;;18.75;37.51
62976;BME280;49071;0.000;0.000;2023-04-28T08:40:28;101035.38;;;18.85;37.62
62976;BME280;49071;0.000;0.000;2023-04-28T08:43:31;101022.63;;;18.97;37.29
62976;BME280;49071;0.000;0.000;2023-04-28T08:46:31;101022.88;;;19.09;37.20
62976;BME280;49071;0.000;0.000;2023-04-28T08:49:33;101018.19;;;19.16;37.15
62976;BME280;49071;0.000;0.000;2023-04-28T08:52:34;101017.19;;;19.19;37.23
62976;BME280;49071;0.000;0.000;2023-04-28T08:55:35;101006.47;;;19.23;37.28
62976;BME280;49071;0.000;0.000;2023-04-28T08:58:35;101011.72;;;19.23;37.41
62976;BME280;49071;0.000;0.000;2023-04-28T09:01:38;101010.03;;;19.22;37.38
62976;BME280;49071;0.000;0.000;2023-04-28T09:04:38;101003.91;;;19.22;37.36
62976;BME280;49071;0.000;0.000;2023-04-28T09:07:39;100995.31;;;19.18;37.27
62976;BME280;49071;0.000;0.000;2023-04-28T09:10:39;101001.44;;;19.19;37.25
62976;BME280;49071;0.000;0.000;2023-04-28T09:13:40;100998.00;;;19.17;37.38
62976;BME280;49071;0.000;0.000;2023-04-28T09:16:40;100989.41;;;19.13;37.44
62976;BME280;49071;0.000;0.000;2023-04-28T09:19:40;100985.09;;;19.12;37.19
62976;BME280;49071;0.000;0.000;2023-04-28T09:22:41;100988.66;;;19.11;37.30
62976;BME280;49071;0.000;0.000;2023-04-28T09:26:01;100989.63;;;19.08;37.14
62976;BME280;49071;0.000;0.000;2023-04-28T09:29:11;100975.78;;;19.05;37.42
62976;BME280;49071;0.000;0.000;2023-04-28T09:35:12;100970.75;;;19.00;37.61
62976;BME280;49071;0.000;0.000;2023-04-28T09:38:14;100969.03;;;18.99;37.26
62976;BME280;49071;0.000;0.000;2023-04-28T09:41:14;100970.03;;;18.97;37.31
62976;BME280;49071;0.000;0.000;2023-04-28T09:44:16;100958.78;;;18.93;37.62
62976;BME280;49071;0.000;0.000;2023-04-28T09:47:20;100953.69;;;18.90;37.81
62976;BME280;49071;0.000;0.000;2023-04-28T09:50:21;100952.06;;;18.87;37.54
62976;BME280;49071;0.000;0.000;2023-04-28T09:53:22;100944.31;;;18.84;37.67
62976;BME280;49071;0.000;0.000;2023-04-28T09:56:23;100940.03;;;18.82;37.60
62976;BME280;49071;0.000;0.000;2023-04-28T09:59:26;100942.88;;;18.77;37.92
62976;BME280;49071;0.000;0.000;2023-04-28T10:02:27;100937.63;;;18.77;38.08
62976;BME280;49071;0.000;0.000;2023-04-28T10:05:28;100939.19;;;18.81;38.08
62976;BME280;49071;0.000;0.000;2023-04-28T10:08:28;100931.94;;;18.86;37.91
62976;BME280;49071;0.000;0.000;2023-04-28T10:11:29;100932.34;;;18.96;37.79
62976;BME280;49071;0.000;0.000;2023-04-28T10:14:30;100928.47;;;19.05;37.43
62976;BME280;49071;0.000;0.000;2023-04-28T10:17:30;100919.91;;;19.19;37.32
62976;BME280;49071;0.000;0.000;2023-04-28T10:20:31;100913.97;;;19.32;36.88
62976;BME280;49071;0.000;0.000;2023-04-28T10:23:46;100914.16;;;19.47;37.07
62976;BME280;49071;0.000;0.000;2023-04-28T10:27:01;100908.59;;;19.53;37.01
62976;BME280;49071;0.000;0.000;2023-04-28T10:30:15;100905.03;;;19.54;37.09
62976;BME280;49071;0.000;0.000;2023-04-28T10:39:35;100897.13;;;19.54;37.01
62976;BME280;49071;0.000;0.000;2023-04-28T10:42:51;100887.53;;;19.53;37.10
62976;BME280;49071;0.000;0.000;2023-04-28T10:48:52;100880.84;;;19.47;36.90
62976;BME280;49071;0.000;0.000;2023-04-28T10:51:53;100874.84;;;19.44;37.15
62976;BME280;49071;0.000;0.000;2023-04-28T11:04:21;100859.75;;;19.30;37.24
62976;BME280;49071;0.000;0.000;2023-04-28T11:07:23;100860.81;;;19.26;37.44
62976;BME280;49071;0.000;0.000;2023-04-28T11:10:23;100854.03;;;19.22;37.65
62976;BME280;49071;0.000;0.000;2023-04-28T11:13:29;100844.59;;;19.18;37.52
62976;BME280;49071;0.000;0.000;2023-04-28T11:16:33;100841.31;;;19.13;37.85
62976;BME280;49071;0.000;0.000;2023-04-28T11:19:38;100837.16;;;19.08;37.66
62976;BME280;49071;0.000;0.000;2023-04-28T11:22:38;100836.50;;;19.03;37.83
62976;BME280;49071;0.000;0.000;2023-04-28T11:26:00;100841.06;;;19.00;37.68
62976;BME280;49071;0.000;0.000;2023-04-28T11:28:59;100839.59;;;18.94;37.90
62976;BME280;49071;0.000;0.000;2023-04-28T11:32:00;100837.16;;;18.90;38.16
62976;BME280;49071;0.000;0.000;2023-04-28T11:35:01;100832.16;;;18.85;38.04
62976;BME280;49071;0.000;0.000;2023-04-28T11:38:03;100830.66;;;18.79;38.15
62976;BME280;49071;0.000;0.000;2023-04-28T11:41:03;100831.59;;;18.78;38.30
62976;BME280;49071;0.000;0.000;2023-04-28T11:44:10;100828.91;;;18.80;37.96
62976;BME280;49071;0.000;0.000;2023-04-28T11:47:10;100823.47;;;18.83;38.28
62976;BME280;49071;0.000;0.000;2023-04-28T11:50:11;100825.81;;;18.89;38.01
62976;BME280;49071;0.000;0.000;2023-04-28T11:53:13;100818.34;;;18.99;38.03
62976;BME280;49071;0.000;0.000;2023-04-28T11:56:13;100820.53;;;19.08;37.80
62976;BME280;49071;0.000;0.000;2023-04-28T11:59:13;100817.38;;;19.19;37.67
62976;BME280;49071;0.000;0.000;2023-04-28T12:02:14;100811.66;;;19.28;37.70
62976;BME280;49071;0.000;0.000;2023-04-28T12:05:15;100823.47;;;19.37;37.29
62976;BME280;49071;0.000;0.000;2023-04-28T12:08:26;100815.44;;;19.40;37.55
62976;BME280;49071;0.000;0.000;2023-04-28T12:11:26;100812.75;;;19.41;37.52
62976;BME280;49071;0.000;0.000;2023-04-28T12:14:26;100809.31;;;19.39;37.62
62976;BME280;49071;0.000;0.000;2023-04-28T12:17:28;100803.38;;;19.35;37.46
62976;BME280;49071;0.000;0.000;2023-04-28T12:20:35;100802.59;;;19.33;37.53
62976;BME280;49071;0.000;0.000;2023-04-28T12:23:36;100801.88;;;19.30;37.83
62976;BME280;49071;0.000;0.000;2023-04-28T12:26:36;100800.19;;;19.29;37.66
62976;BME280;49071;0.000;0.000;2023-04-28T12:29:37;100789.91;;;19.24;38.04
62976;BME280;49071;0.000;0.000;2023-04-28T12:32:39;100790.13;;;19.20;37.67
62976;BME280;49071;0.000;0.000;2023-04-28T12:35:39;100792.91;;;19.17;37.72
62976;BME280;49071;0.000;0.000;2023-04-28T12:38:46;100792.22;;;19.13;37.69
62976;BME280;49071;0.000;0.000;2023-04-28T12:41:46;100778.47;;;19.08;37.90
62976;BME280;49071;0.000;0.000;2023-04-28T12:44:46;100781.16;;;19.06;37.88
62976;BME280;49071;0.000;0.000;2023-04-28T12:47:46;100772.56;;;19.03;38.06
62976;BME280;49071;0.000;0.000;2023-04-28T12:50:47;100768.41;;;18.99;38.25
62976;BME280;49071;0.000;0.000;2023-04-28T12:53:47;100766.84;;;18.95;38.30
62976;BME280;49071;0.000;0.000;2023-04-28T12:56:47;100760.94;;;18.90;38.43
62976;BME280;49071;0.000;0.000;2023-04-28T12:59:48;100758.47;;;18.86;38.46
62976;BME280;49071;0.000;0.000;2023-04-28T13:02:49;100757.88;;;18.81;38.53
62976;BME280;49071;0.000;0.000;2023-04-28T13:05:50;100750.28;;;18.75;38.59
62976;BME280;49071;0.000;0.000;2023-04-28T13:08:50;100748.63;;;18.73;38.80
62976;BME280;49071;0.000;0.000;2023-04-28T13:11:51;100749.63;;;18.70;38.56
62976;BME280;49071;0.000;0.000;2023-04-28T13:14:52;100740.16;;;18.66;38.71
62976;BME280;49071;0.000;0.000;2023-04-28T13:17:52;100740.34;;;18.63;38.61
62976;BME280;49071;0.000;0.000;2023-04-28T13:20:52;100736.84;;;18.62;38.85
62976;BME280;49071;0.000;0.000;2023-04-28T13:23:53;100732.28;;;18.66;38.81
62976;BME280;49071;0.000;0.000;2023-04-28T13:26:54;100732.88;;;18.73;38.63
62976;BME280;49071;0.000;0.000;2023-04-28T13:29:54;100727.31;;;18.79;38.72
62976;BME280;49071;0.000;0.000;2023-04-28T13:32:57;100712.88;;;18.87;38.41
62976;BME280;49071;0.000;0.000;2023-04-28T13:35:57;100717.50;;;19.00;37.89
62976;BME280;49071;0.000;0.000;2023-04-28T13:38:58;100706.38;;;19.12;38.13
62976;BME280;49071;0.000;0.000;2023-04-28T13:41:58;100699.56;;;19.25;37.98
62976;BME280;49071;0.000;0.000;2023-04-28T13:44:59;100707.59;;;19.40;37.80
62976;BME280;49071;0.000;0.000;2023-04-28T13:47:59;100697.69;;;19.45;37.65
62976;BME280;49071;0.000;0.000;2023-04-28T13:50:59;100690.47;;;19.48;37.66
62976;BME280;49071;0.000;0.000;2023-04-28T13:53:59;100689.63;;;19.48;37.88
62976;BME280;49071;0.000;0.000;2023-04-28T13:57:03;100684.53;;;19.45;37.48
62976;BME280;49071;0.000;0.000;2023-04-28T14:00:03;100690.69;;;19.44;37.86
62976;BME280;49071;0.000;0.000;2023-04-28T14:03:04;100675.97;;;19.41;37.77
62976;BME280;49071;0.000;0.000;2023-04-28T14:06:05;100678.81;;;19.37;37.99
62976;BME280;49071;0.000;0.000;2023-04-28T14:09:05;100672.00;;;19.32;37.70
62976;BME280;49071;0.000;0.000;2023-04-28T14:12:05;100673.03;;;19.30;38.01
62976;BME280;49071;0.000;0.000;2023-04-28T14:15:06;100664.44;;;19.26;38.00
62976;BME280;49071;0.000;0.000;2023-04-28T14:18:06;100663.84;;;19.21;38.17
62976;BME280;49071;0.000;0.000;2023-04-28T14:21:07;100663.16;;;19.18;38.29
62976;BME280;49071;0.000;0.000;2023-04-28T14:24:08;100659.00;;;19.14;38.11
62976;BME280;49071;0.000;0.000;2023-04-28T14:27:09;100658.28;;;19.10;37.93
62976;BME280;49071;0.000;0.000;2023-04-28T14:30:10;100652.34;;;19.06;38.04
62976;BME280;49071;0.000;0.000;2023-04-28T14:33:10;100646.38;;;19.03;38.49
62976;BME280;49071;0.000;0.000;2023-04-28T14:36:10;100649.16;;;19.00;38.45
62976;BME280;49071;0.000;0.000;2023-04-28T14:39:10;100647.63;;;18.96;38.45
62976;BME280;49071;0.000;0.000;2023-04-28T14:42:11;100646.09;;;18.92;38.57
62976;BME280;49071;0.000;0.000;2023-04-28T14:45:11;100640.16;;;18.88;38.63
62976;BME280;49071;0.000;0.000;2023-04-28T14:48:11;100636.81;;;18.84;38.47
62976;BME280;49071;0.000;0.000;2023-04-28T14:51:14;100630.94;;;18.79;38.80
62976;BME280;49071;0.000;0.000;2023-04-28T14:54:14;100634.66;;;18.75;38.87
62976;BME280;49071;0.000;0.000;2023-04-28T14:57:14;100637.50;;;18.71;39.08
62976;BME280;49071;0.000;0.000;2023-04-28T15:00:15;100635.03;;;18.68;38.98
62976;BME280;49071;0.000;0.000;2023-04-28T15:03:15;100628.22;;;18.63;38.79
62976;BME280;49071;0.000;0.000;2023-04-28T15:06:16;100626.75;;;18.58;39.03
62976;BME280;49071;0.000;0.000;2023-04-28T15:09:16;100617.25;;;18.55;38.91
62976;BME280;49071;0.000;0.000;2023-04-28T15:12:16;100609.59;;;18.51;39.01
62976;BME280;49071;0.000;0.000;2023-04-28T15:15:16;100622.88;;;18.48;39.18
62976;BME280;49071;0.000;0.000;2023-04-28T15:18:17;100613.38;;;18.45;38.96
62976;BME280;49071;0.000;0.000;2023-04-28T15:21:17;100613.31;;;18.47;39.05
62976;BME280;49071;0.000;0.000;2023-04-28T15:24:18;100608.66;;;18.52;39.51
62976;BME280;49071;0.000;0.000;2023-04-28T15:27:18;100610.53;;;18.67;39.24
62976;BME280;49071;0.000;0.000;2023-04-28T15:30:18;100606.53;;;18.77;39.36
62976;BME280;49071;0.000;0.000;2023-04-28T15:33:18;100607.50;;;18.92;39.39
62976;BME280;49071;0.000;0.000;2023-04-28T15:36:19;100613.06;;;19.03;38.99
62976;BME280;49071;0.000;0.000;2023-04-28T15:39:19;100611.59;;;19.15;39.16
62976;BME280;49071;0.000;0.000;2023-04-28T15:42:20;100624.25;;;19.24;38.64
62976;BME280;49071;0.000;0.000;2023-04-28T15:45:20;100623.00;;;19.31;38.97
62976;BME280;49071;0.000;0.000;2023-04-28T15:48:21;100625.31;;;19.38;38.61
62976;BME280;49071;0.000;0.000;2023-04-28T15:51:22;100627.84;;;19.39;39.03
62976;BME280;49071;0.000;0.000;2023-04-28T15:54:22;100621.63;;;19.40;39.11
62976;BME280;49071;0.000;0.000;2023-04-28T15:57:22;100616.47;;;19.39;39.30
62976;BME280;49071;0.000;0.000;2023-04-28T16:00:23;100620.94;;;19.37;39.21
62976;BME280;49071;0.000;0.000;2023-04-28T16:03:23;100622.72;;;19.36;39.31
62976;BME280;49071;0.000;0.000;2023-04-28T16:06:23;100624.63;;;19.34;39.39
62976;BME280;49071;0.000;0.000;2023-04-28T16:09:24;100625.47;;;19.34;39.62
62976;BME280;49071;0.000;0.000;2023-04-28T16:12:24;100623.06;;;19.30;39.61
62976;BME280;49071;0.000;0.000;2023-04-28T16:15:24;100628.41;;;19.28;39.74
62976;BME280;49071;0.000;0.000;2023-04-28T16:18:25;100618.91;;;19.26;39.75
62976;BME280;49071;0.000;0.000;2023-04-28T16:21:25;100627.78;;;19.23;39.81
62976;BME280;49071;0.000;0.000;2023-04-28T16:24:25;100623.63;;;19.19;40.03
62976;BME280;49071;0.000;0.000;2023-04-28T16:27:26;100619.38;;;19.17;40.11
62976;BME280;49071;0.000;0.000;2023-04-28T16:30:27;100616.00;;;19.15;40.12
62976;BME280;49071;0.000;0.000;2023-04-28T16:33:27;100611.75;;;19.12;40.14
62976;BME280;49071;0.000;0.000;2023-04-28T16:36:30;100618.09;;;19.08;40.46
62976;BME280;49071;0.000;0.000;2023-04-28T16:39:31;100615.69;;;19.03;40.66
62976;BME280;49071;0.000;0.000;2023-04-28T16:42:32;100603.56;;;19.01;40.44
62976;BME280;49071;0.000;0.000;2023-04-28T16:45:32;100608.91;;;18.99;40.37
62976;BME280;49071;0.000;0.000;2023-04-28T16:48:32;100604.56;;;18.98;40.55
62976;BME280;49071;0.000;0.000;2023-04-28T16:51:32;100595.16;;;18.94;40.72
62976;BME280;49071;0.000;0.000;2023-04-28T16:54:33;100595.31;;;18.91;40.81
62976;BME280;49071;0.000;0.000;2023-04-28T16:57:33;100596.25;;;18.90;40.76
62976;BME280;49071;0.000;0.000;2023-04-28T17:00:33;100590.22;;;18.88;41.00
62976;BME280;49071;0.000;0.000;2023-04-28T17:03:33;100589.44;;;18.86;41.14
62976;BME280;49071;0.000;0.000;2023-04-28T17:06:39;100587.84;;;18.83;41.14
62976;BME280;49071;0.000;0.000;2023-04-28T17:09:40;100579.16;;;18.81;41.19
62976;BME280;49071;0.000;0.000;2023-04-28T17:12:40;100581.94;;;18.78;41.17
62976;BME280;49071;0.000;0.000;2023-04-28T17:15:41;100580.25;;;18.77;41.60
62976;BME280;49071;0.000;0.000;2023-04-28T17:18:41;100575.91;;;18.76;41.65
62976;BME280;49071;0.000;0.000;2023-04-28T17:21:42;100579.47;;;18.75;41.35
62976;BME280;49071;0.000;0.000;2023-04-28T17:24:42;100583.06;;;18.74;41.40
62976;BME280;49071;0.000;0.000;2023-04-28T17:27:44;100579.69;;;18.71;41.63
62976;BME280;49071;0.000;0.000;2023-04-28T17:30:44;100578.06;;;18.68;41.94
62976;BME280;49071;0.000;0.000;2023-04-28T17:33:44;100573.81;;;18.65;42.02
62976;BME280;49071;0.000;0.000;2023-04-28T17:36:45;100579.22;;;18.62;41.44
62976;BME280;49071;0.000;0.000;2023-04-28T17:39:48;100566.25;;;18.59;41.90
62976;BME280;49071;0.000;0.000;2023-04-28T17:42:49;100555.03;;;18.56;41.63
62976;BME280;49071;0.000;0.000;2023-04-28T17:45:49;100571.84;;;18.53;42.05
62976;BME280;49071;0.000;0.000;2023-04-28T17:48:53;100571.84;;;18.53;42.29
62976;BME280;49071;0.000;0.000;2023-04-28T17:51:53;100569.22;;;18.53;41.85
62976;BME280;49071;0.000;0.000;2023-04-28T17:54:54;100573.63;;;18.53;42.02
62976;BME280;49071;0.000;0.000;2023-04-28T17:57:55;100577.16;;;18.52;41.83
62976;BME280;49071;0.000;0.000;2023-04-28T18:01:13;100572.88;;;18.49;42.13
62976;BME280;49071;0.000;0.000;2023-04-28T18:04:13;100579.06;;;18.48;42.40
62976;BME280;49071;0.000;0.000;2023-04-28T18:07:13;100582.56;;;18.49;42.49
62976;BME280;49071;0.000;0.000;2023-04-28T18:10:14;100583.63;;;18.45;42.18
62976;BME280;49071;0.000;0.000;2023-04-28T18:13:14;100579.22;;;18.45;42.24
62976;BME280;49071;0.000;0.000;2023-04-28T18:16:14;100582.00;;;18.42;42.45
62976;BME280;49071;0.000;0.000;2023-04-28T18:19:14;100575.06;;;18.41;42.66
62976;BME280;49071;0.000;0.000;2023-04-28T18:22:15;100576.00;;;18.40;42.73
62976;BME280;49071;0.000;0.000;2023-04-28T18:25:16;100585.72;;;18.38;42.73
62976;BME280;49071;0.000;0.000;2023-04-28T18:28:17;100578.69;;;18.38;43.08
62976;BME280;49071;0.000;0.000;2023-04-28T18:31:17;100575.31;;;18.36;42.70
62976;BME280;49071;0.000;0.000;2023-04-28T18:34:17;100572.69;;;18.36;42.63
62976;BME280;49071;0.000;0.000;2023-04-28T18:37:17;100578.94;;;18.34;42.72
62976;BME280;49071;0.000;0.000;2023-04-28T18:40:18;100578.09;;;18.33;42.57
62976;BME280;49071;0.000;0.000;2023-04-28T18:43:18;100579.91;;;18.31;42.67
62976;BME280;49071;0.000;0.000;2023-04-28T18:46:18;100590.44;;;18.31;42.91
62976;BME280;49071;0.000;0.000;2023-04-28T18:49:18;100586.09;;;18.30;43.04
62976;BME280;49071;0.000;0.000;2023-04-28T18:52:19;100585.31;;;18.28;43.13
62976;BME280;49071;0.000;0.000;2023-04-28T18:55:19;100583.63;;;18.27;43.11
62976;BME280;49071;0.000;0.000;2023-04-28T18:58:19;100588.03;;;18.27;42.80
62976;BME280;49071;0.000;0.000;2023-04-28T19:01:20;100589.66;;;18.29;42.84
62976;BME280;49071;0.000;0.000;2023-04-28T19:04:20;100585.31;;;18.28;43.08
62976;BME280;49071;0.000;0.000;2023-04-28T19:07:21;100586.09;;;18.30;43.25
62976;BME280;49071;0.000;0.000;2023-04-28T19:10:21;100588.66;;;18.32;43.19
62976;BME280;49071;0.000;0.000;2023-04-28T19:13:21;100587.78;;;18.31;43.44
62976;BME280;49071;0.000;0.000;2023-04-28T19:16:22;100590.38;;;18.33;43.20
62976;BME280;49071;0.000;0.000;2023-04-28T19:19:22;100586.03;;;18.32;43.31
62976;BME280;49071;0.000;0.000;2023-04-28T19:22:32;100583.47;;;18.30;43.32
62976;BME280;49071;0.000;0.000;2023-04-28T19:25:33;100577.38;;;18.30;43.67
62976;BME280;49071;0.000;0.000;2023-04-28T19:28:35;100579.16;;;18.29;43.63
62976;BME280;49071;0.000;0.000;2023-04-28T19:31:35;100584.41;;;18.29;43.38
62976;BME280;49071;0.000;0.000;2023-04-28T19:34:36;100574.75;;;18.30;43.58
62976;BME280;49071;0.000;0.000;2023-04-28T19:37:36;100580.06;;;18.28;43.49
62976;BME280;49071;0.000;0.000;2023-04-28T19:40:36;100581.78;;;18.29;43.55
62976;BME280;49071;0.000;0.000;2023-04-28T19:43:36;100580.00;;;18.30;43.88
62976;BME280;49071;0.000;0.000;2023-04-28T19:46:37;100578.16;;;18.32;43.62
62976;BME280;49071;0.000;0.000;2023-04-28T19:49:37;100582.56;;;18.31;43.73
62976;BME280;49071;0.000;0.000;2023-04-28T19:52:38;100589.50;;;18.32;43.54
62976;BME280;49071;0.000;0.000;2023-04-28T19:55:38;100585.97;;;18.33;43.72
62976;BME280;49071;0.000;0.000;2023-04-28T19:58:38;100579.63;;;18.37;43.61
62976;BME280;49071;0.000;0.000;2023-04-28T20:01:40;100574.06;;;18.44;43.69
62976;BME280;49071;0.000;0.000;2023-04-28T20:04:42;100581.66;;;18.50;43.46
